sensor_id;sensor_type;location;lat;lon;timestamp;temperature;humidity
7658;DHT22;8462;53.156;8.220;2022-10-16T00:01:05;15.50;86.00
7658;DHT22;8462;53.156;8.220;2022-10-16T00:03:33;15.40;86.10
7658;DHT22;8462;53.156;8.220;2022-10-16T00:06:00;15.40;86.00
7658;DHT22;8462;53.156;8.220;2022-10-16T00:08:28;15.40;86.10
7658;DHT22;8462;53.156;8.220;2022-10-16T00:11:00;15.40;86.10
7658;DHT22;8462;53.156;8.220;2022-10-16T00:13:28;15.40;85.90
7658;DHT22;8462;53.156;8.220;2022-10-16T00:15:56;15.40;85.90
7658;DHT22;8462;53.156;8.220;2022-10-16T00:18:23;15.30;86.00
7658;DHT22;8462;53.156;8.220;2022-10-16T00:20:51;15.30;86.00
7658;DHT22;8462;53.156;8.220;2022-10-16T00:23:18;15.30;86.00
7658;DHT22;8462;53.156;8.220;2022-10-16T00:25:45;15.30;85.90
7658;DHT22;8462;53.156;8.220;2022-10-16T00:28:13;15.30;85.90
7658;DHT22;8462;53.156;8.220;2022-10-16T00:30:40;15.20;85.80
7658;DHT22;8462;53.156;8.220;2022-10-16T00:33:07;15.30;85.80
7658;DHT22;8462;53.156;8.220;2022-10-16T00:35:34;15.20;85.70
7658;DHT22;8462;53.156;8.220;2022-10-16T00:38:01;15.20;85.80
7658;DHT22;8462;53.156;8.220;2022-10-16T00:40:27;15.20;85.80
7658;DHT22;8462;53.156;8.220;2022-10-16T00:42:56;15.20;85.80
7658;DHT22;8462;53.156;8.220;2022-10-16T00:45:24;15.20;86.70
7658;DHT22;8462;53.156;8.220;2022-10-16T00:47:52;15.10;85.60
7658;DHT22;8462;53.156;8.220;2022-10-16T00:50:26;15.10;85.70
7658;DHT22;8462;53.156;8.220;2022-10-16T00:52:56;15.10;85.70
7658;DHT22;8462;53.156;8.220;2022-10-16T00:55:24;15.10;85.60
7658;DHT22;8462;53.156;8.220;2022-10-16T00:57:51;15.10;85.60
7658;DHT22;8462;53.156;8.220;2022-10-16T01:00:21;15.10;85.60
7658;DHT22;8462;53.156;8.220;2022-10-16T01:02:54;15.10;85.60
7658;DHT22;8462;53.156;8.220;2022-10-16T01:05:22;15.10;85.70
7658;DHT22;8462;53.156;8.220;2022-10-16T01:07:57;15.10;85.70
7658;DHT22;8462;53.156;8.220;2022-10-16T01:10:30;15.00;85.70
7658;DHT22;8462;53.156;8.220;2022-10-16T01:13:01;15.10;85.70
7658;DHT22;8462;53.156;8.220;2022-10-16T01:15:31;15.00;85.70
7658;DHT22;8462;53.156;8.220;2022-10-16T01:18:05;15.00;85.80
7658;DHT22;8462;53.156;8.220;2022-10-16T01:20:37;15.00;85.90
7658;DHT22;8462;53.156;8.220;2022-10-16T01:23:15;15.00;85.90
7658;DHT22;8462;53.156;8.220;2022-10-16T01:26:10;15.00;86.00
7658;DHT22;8462;53.156;8.220;2022-10-16T01:28:44;14.90;86.00
7658;DHT22;8462;53.156;8.220;2022-10-16T01:31:17;14.90;86.10
7658;DHT22;8462;53.156;8.220;2022-10-16T01:33:47;14.90;86.10
7658;DHT22;8462;53.156;8.220;2022-10-16T01:36:21;14.90;86.20
7658;DHT22;8462;53.156;8.220;2022-10-16T01:38:52;14.90;86.20
7658;DHT22;8462;53.156;8.220;2022-10-16T01:41:23;14.90;86.30
7658;DHT22;8462;53.156;8.220;2022-10-16T01:43:56;14.90;86.10
7658;DHT22;8462;53.156;8.220;2022-10-16T01:46:26;14.90;86.20
7658;DHT22;8462;53.156;8.220;2022-10-16T01:48:54;14.90;86.30
7658;DHT22;8462;53.156;8.220;2022-10-16T01:51:23;15.00;86.00
7658;DHT22;8462;53.156;8.220;2022-10-16T01:53:53;15.00;85.80
7658;DHT22;8462;53.156;8.220;2022-10-16T01:56:22;15.10;85.90
7658;DHT22;8462;53.156;8.220;2022-10-16T01:58:55;15.10;85.50
7658;DHT22;8462;53.156;8.220;2022-10-16T02:01:24;15.10;85.40
7658;DHT22;8462;53.156;8.220;2022-10-16T02:03:54;15.20;86.40
7658;DHT22;8462;53.156;8.220;2022-10-16T02:06:22;15.30;85.50
7658;DHT22;8462;53.156;8.220;2022-10-16T02:08:50;15.30;85.20
7658;DHT22;8462;53.156;8.220;2022-10-16T02:11:17;15.30;84.80
7658;DHT22;8462;53.156;8.220;2022-10-16T02:13:48;15.30;84.90
7658;DHT22;8462;53.156;8.220;2022-10-16T02:16:19;15.30;84.70
7658;DHT22;8462;53.156;8.220;2022-10-16T02:18:46;15.30;84.60
7658;DHT22;8462;53.156;8.220;2022-10-16T02:21:18;15.30;84.60
7658;DHT22;8462;53.156;8.220;2022-10-16T02:23:51;15.30;84.50
7658;DHT22;8462;53.156;8.220;2022-10-16T02:26:27;15.30;84.60
7658;DHT22;8462;53.156;8.220;2022-10-16T02:28:59;15.20;84.60
7658;DHT22;8462;53.156;8.220;2022-10-16T02:31:31;15.30;84.60
7658;DHT22;8462;53.156;8.220;2022-10-16T02:34:00;15.30;84.40
7658;DHT22;8462;53.156;8.220;2022-10-16T02:36:28;15.20;84.40
7658;DHT22;8462;53.156;8.220;2022-10-16T02:38:56;15.20;84.40
7658;DHT22;8462;53.156;8.220;2022-10-16T02:41:23;15.20;84.40
7658;DHT22;8462;53.156;8.220;2022-10-16T02:43:50;15.20;84.40
7658;DHT22;8462;53.156;8.220;2022-10-16T02:46:17;15.20;84.40
7658;DHT22;8462;53.156;8.220;2022-10-16T02:48:46;15.30;84.40
7658;DHT22;8462;53.156;8.220;2022-10-16T02:51:13;15.20;84.20
7658;DHT22;8462;53.156;8.220;2022-10-16T02:53:40;15.20;84.20
7658;DHT22;8462;53.156;8.220;2022-10-16T02:56:07;15.20;84.20
7658;DHT22;8462;53.156;8.220;2022-10-16T02:58:34;15.20;84.20
7658;DHT22;8462;53.156;8.220;2022-10-16T03:01:01;15.10;84.20
7658;DHT22;8462;53.156;8.220;2022-10-16T03:03:28;15.10;84.20
7658;DHT22;8462;53.156;8.220;2022-10-16T03:05:56;15.10;84.00
7658;DHT22;8462;53.156;8.220;2022-10-16T03:08:23;15.10;84.30
7658;DHT22;8462;53.156;8.220;2022-10-16T03:10:51;15.10;84.20
7658;DHT22;8462;53.156;8.220;2022-10-16T03:13:17;15.10;84.20
7658;DHT22;8462;53.156;8.220;2022-10-16T03:15:46;15.00;84.10
7658;DHT22;8462;53.156;8.220;2022-10-16T03:18:12;15.10;84.20
7658;DHT22;8462;53.156;8.220;2022-10-16T03:20:39;15.00;84.10
7658;DHT22;8462;53.156;8.220;2022-10-16T03:23:08;15.00;84.30
7658;DHT22;8462;53.156;8.220;2022-10-16T03:25:34;15.00;84.40
7658;DHT22;8462;53.156;8.220;2022-10-16T03:28:01;15.00;84.40
7658;DHT22;8462;53.156;8.220;2022-10-16T03:30:28;15.00;84.50
7658;DHT22;8462;53.156;8.220;2022-10-16T03:32:55;15.00;84.70
7658;DHT22;8462;53.156;8.220;2022-10-16T03:35:24;15.10;84.50
7658;DHT22;8462;53.156;8.220;2022-10-16T03:37:51;15.10;84.50
7658;DHT22;8462;53.156;8.220;2022-10-16T03:40:19;15.20;84.40
7658;DHT22;8462;53.156;8.220;2022-10-16T03:42:46;15.20;84.30
7658;DHT22;8462;53.156;8.220;2022-10-16T03:45:13;15.20;84.20
7658;DHT22;8462;53.156;8.220;2022-10-16T03:47:40;15.20;84.10
7658;DHT22;8462;53.156;8.220;2022-10-16T03:50:08;15.30;84.20
7658;DHT22;8462;53.156;8.220;2022-10-16T03:52:35;15.30;84.00
7658;DHT22;8462;53.156;8.220;2022-10-16T03:55:02;15.40;84.10
7658;DHT22;8462;53.156;8.220;2022-10-16T03:57:30;15.40;84.10
7658;DHT22;8462;53.156;8.220;2022-10-16T03:59:57;15.40;83.90
7658;DHT22;8462;53.156;8.220;2022-10-16T04:02:25;15.50;84.00
7658;DHT22;8462;53.156;8.220;2022-10-16T04:04:52;15.50;84.00
7658;DHT22;8462;53.156;8.220;2022-10-16T04:07:19;15.50;83.90
7658;DHT22;8462;53.156;8.220;2022-10-16T04:09:46;15.50;84.00
7658;DHT22;8462;53.156;8.220;2022-10-16T04:12:12;15.50;83.90
7658;DHT22;8462;53.156;8.220;2022-10-16T04:14:41;15.60;84.10
7658;DHT22;8462;53.156;8.220;2022-10-16T04:17:07;15.60;84.10
7658;DHT22;8462;53.156;8.220;2022-10-16T04:19:34;15.60;84.20
7658;DHT22;8462;53.156;8.220;2022-10-16T04:22:02;15.60;84.20
7658;DHT22;8462;53.156;8.220;2022-10-16T04:24:29;15.70;84.20
7658;DHT22;8462;53.156;8.220;2022-10-16T04:26:56;15.70;84.30
7658;DHT22;8462;53.156;8.220;2022-10-16T04:29:23;15.70;84.20
7658;DHT22;8462;53.156;8.220;2022-10-16T04:31:51;15.70;84.20
7658;DHT22;8462;53.156;8.220;2022-10-16T04:34:18;15.70;84.20
7658;DHT22;8462;53.156;8.220;2022-10-16T04:36:47;15.70;84.30
7658;DHT22;8462;53.156;8.220;2022-10-16T04:39:14;15.80;84.30
7658;DHT22;8462;53.156;8.220;2022-10-16T04:41:41;15.80;84.30
7658;DHT22;8462;53.156;8.220;2022-10-16T04:44:08;15.80;84.20
7658;DHT22;8462;53.156;8.220;2022-10-16T04:46:35;15.80;84.10
7658;DHT22;8462;53.156;8.220;2022-10-16T04:49:03;15.80;84.10
7658;DHT22;8462;53.156;8.220;2022-10-16T04:51:30;15.80;84.10
7658;DHT22;8462;53.156;8.220;2022-10-16T04:53:58;15.80;84.20
7658;DHT22;8462;53.156;8.220;2022-10-16T04:56:25;15.70;84.30
7658;DHT22;8462;53.156;8.220;2022-10-16T04:58:51;15.70;84.40
7658;DHT22;8462;53.156;8.220;2022-10-16T05:01:18;15.70;84.60
7658;DHT22;8462;53.156;8.220;2022-10-16T05:03:45;15.70;85.20
7658;DHT22;8462;53.156;8.220;2022-10-16T05:06:13;15.70;85.30
7658;DHT22;8462;53.156;8.220;2022-10-16T05:08:41;15.70;85.30
7658;DHT22;8462;53.156;8.220;2022-10-16T05:11:08;15.70;85.30
7658;DHT22;8462;53.156;8.220;2022-10-16T05:13:35;15.70;85.30
7658;DHT22;8462;53.156;8.220;2022-10-16T05:16:01;15.80;85.40
7658;DHT22;8462;53.156;8.220;2022-10-16T05:18:28;15.80;85.40
7658;DHT22;8462;53.156;8.220;2022-10-16T05:20:55;15.80;85.40
7658;DHT22;8462;53.156;8.220;2022-10-16T05:23:23;15.80;85.20
7658;DHT22;8462;53.156;8.220;2022-10-16T05:25:54;15.80;85.20
7658;DHT22;8462;53.156;8.220;2022-10-16T05:28:23;15.80;85.30
7658;DHT22;8462;53.156;8.220;2022-10-16T05:30:51;15.80;85.40
7658;DHT22;8462;53.156;8.220;2022-10-16T05:33:20;15.70;85.40
7658;DHT22;8462;53.156;8.220;2022-10-16T05:35:47;15.70;85.50
7658;DHT22;8462;53.156;8.220;2022-10-16T05:38:15;15.70;85.80
7658;DHT22;8462;53.156;8.220;2022-10-16T05:40:50;15.70;85.90
7658;DHT22;8462;53.156;8.220;2022-10-16T05:43:18;15.70;85.90
7658;DHT22;8462;53.156;8.220;2022-10-16T05:45:45;15.70;85.90
7658;DHT22;8462;53.156;8.220;2022-10-16T05:48:20;15.60;86.00
7658;DHT22;8462;53.156;8.220;2022-10-16T05:50:47;15.60;86.10
7658;DHT22;8462;53.156;8.220;2022-10-16T05:53:15;15.60;86.10
7658;DHT22;8462;53.156;8.220;2022-10-16T05:55:41;15.60;86.10
7658;DHT22;8462;53.156;8.220;2022-10-16T05:58:10;15.60;86.10
7658;DHT22;8462;53.156;8.220;2022-10-16T06:00:36;15.60;86.30
7658;DHT22;8462;53.156;8.220;2022-10-16T06:03:03;15.60;86.60
7658;DHT22;8462;53.156;8.220;2022-10-16T06:05:32;15.60;86.60
7658;DHT22;8462;53.156;8.220;2022-10-16T06:07:59;15.60;86.70
7658;DHT22;8462;53.156;8.220;2022-10-16T06:10:26;15.60;86.90
7658;DHT22;8462;53.156;8.220;2022-10-16T06:12:54;15.50;86.90
7658;DHT22;8462;53.156;8.220;2022-10-16T06:15:23;15.50;87.00
7658;DHT22;8462;53.156;8.220;2022-10-16T06:17:50;15.60;87.00
7658;DHT22;8462;53.156;8.220;2022-10-16T06:20:17;15.60;87.00
7658;DHT22;8462;53.156;8.220;2022-10-16T06:22:44;15.60;86.80
7658;DHT22;8462;53.156;8.220;2022-10-16T06:25:11;15.60;86.70
7658;DHT22;8462;53.156;8.220;2022-10-16T06:27:39;15.50;86.80
7658;DHT22;8462;53.156;8.220;2022-10-16T06:30:07;15.50;87.00
7658;DHT22;8462;53.156;8.220;2022-10-16T06:32:36;15.60;88.10
7658;DHT22;8462;53.156;8.220;2022-10-16T06:35:03;15.60;87.00
7658;DHT22;8462;53.156;8.220;2022-10-16T06:37:31;15.70;87.20
7658;DHT22;8462;53.156;8.220;2022-10-16T06:39:58;15.80;87.00
7658;DHT22;8462;53.156;8.220;2022-10-16T06:42:25;15.70;86.50
7658;DHT22;8462;53.156;8.220;2022-10-16T06:44:52;15.80;86.50
7658;DHT22;8462;53.156;8.220;2022-10-16T06:47:19;15.80;86.60
7658;DHT22;8462;53.156;8.220;2022-10-16T06:49:47;15.90;86.60
7658;DHT22;8462;53.156;8.220;2022-10-16T06:52:14;15.90;86.30
7658;DHT22;8462;53.156;8.220;2022-10-16T06:54:41;15.90;86.00
7658;DHT22;8462;53.156;8.220;2022-10-16T06:57:08;15.90;85.90
7658;DHT22;8462;53.156;8.220;2022-10-16T06:59:35;16.00;86.00
7658;DHT22;8462;53.156;8.220;2022-10-16T07:02:01;16.00;86.10
7658;DHT22;8462;53.156;8.220;2022-10-16T07:04:29;16.00;85.80
7658;DHT22;8462;53.156;8.220;2022-10-16T07:06:57;16.10;86.50
7658;DHT22;8462;53.156;8.220;2022-10-16T07:09:26;16.10;85.50
7658;DHT22;8462;53.156;8.220;2022-10-16T07:11:53;16.10;85.50
7658;DHT22;8462;53.156;8.220;2022-10-16T07:14:21;16.10;85.50
7658;DHT22;8462;53.156;8.220;2022-10-16T07:16:48;16.10;85.30
7658;DHT22;8462;53.156;8.220;2022-10-16T07:19:15;16.10;85.30
7658;DHT22;8462;53.156;8.220;2022-10-16T07:21:43;16.30;85.40
7658;DHT22;8462;53.156;8.220;2022-10-16T07:24:13;16.30;85.10
7658;DHT22;8462;53.156;8.220;2022-10-16T07:26:41;16.40;85.30
7658;DHT22;8462;53.156;8.220;2022-10-16T07:29:13;16.60;84.40
7658;DHT22;8462;53.156;8.220;2022-10-16T07:31:40;16.60;84.30
7658;DHT22;8462;53.156;8.220;2022-10-16T07:34:11;16.70;83.80
7658;DHT22;8462;53.156;8.220;2022-10-16T07:36:38;16.80;83.40
7658;DHT22;8462;53.156;8.220;2022-10-16T07:39:05;16.90;83.70
7658;DHT22;8462;53.156;8.220;2022-10-16T07:41:33;17.00;82.70
7658;DHT22;8462;53.156;8.220;2022-10-16T07:44:02;17.00;82.50
7658;DHT22;8462;53.156;8.220;2022-10-16T07:46:30;17.10;82.20
7658;DHT22;8462;53.156;8.220;2022-10-16T07:48:59;17.10;81.90
7658;DHT22;8462;53.156;8.220;2022-10-16T07:51:26;17.10;82.00
7658;DHT22;8462;53.156;8.220;2022-10-16T07:53:53;17.20;81.50
7658;DHT22;8462;53.156;8.220;2022-10-16T07:56:21;17.20;81.60
7658;DHT22;8462;53.156;8.220;2022-10-16T07:58:50;17.20;81.50
7658;DHT22;8462;53.156;8.220;2022-10-16T08:01:17;17.30;81.50
7658;DHT22;8462;53.156;8.220;2022-10-16T08:03:47;17.30;81.10
7658;DHT22;8462;53.156;8.220;2022-10-16T08:06:14;17.40;81.10
7658;DHT22;8462;53.156;8.220;2022-10-16T08:08:41;17.50;80.70
7658;DHT22;8462;53.156;8.220;2022-10-16T08:11:08;17.70;80.30
7658;DHT22;8462;53.156;8.220;2022-10-16T08:13:36;17.80;79.90
7658;DHT22;8462;53.156;8.220;2022-10-16T08:16:04;18.00;80.10
7658;DHT22;8462;53.156;8.220;2022-10-16T08:18:35;18.20;78.60
7658;DHT22;8462;53.156;8.220;2022-10-16T08:21:03;18.40;78.00
7658;DHT22;8462;53.156;8.220;2022-10-16T08:23:30;18.70;77.70
7658;DHT22;8462;53.156;8.220;2022-10-16T08:26:02;18.80;76.40
7658;DHT22;8462;53.156;8.220;2022-10-16T08:28:30;18.90;76.10
7658;DHT22;8462;53.156;8.220;2022-10-16T08:31:06;18.90;76.00
7658;DHT22;8462;53.156;8.220;2022-10-16T08:33:33;19.30;74.50
7658;DHT22;8462;53.156;8.220;2022-10-16T08:36:00;19.60;73.40
7658;DHT22;8462;53.156;8.220;2022-10-16T08:38:27;19.80;72.70
7658;DHT22;8462;53.156;8.220;2022-10-16T08:41:01;19.80;72.40
7658;DHT22;8462;53.156;8.220;2022-10-16T08:43:42;19.80;72.30
7658;DHT22;8462;53.156;8.220;2022-10-16T08:46:33;19.80;72.20
7658;DHT22;8462;53.156;8.220;2022-10-16T08:49:03;19.90;72.40
7658;DHT22;8462;53.156;8.220;2022-10-16T08:51:31;20.00;72.30
7658;DHT22;8462;53.156;8.220;2022-10-16T08:54:02;20.20;71.80
7658;DHT22;8462;53.156;8.220;2022-10-16T08:56:29;20.20;70.70
7658;DHT22;8462;53.156;8.220;2022-10-16T08:58:58;20.00;71.20
7658;DHT22;8462;53.156;8.220;2022-10-16T09:01:32;20.00;71.30
7658;DHT22;8462;53.156;8.220;2022-10-16T09:04:31;19.80;71.70
7658;DHT22;8462;53.156;8.220;2022-10-16T09:07:06;19.80;71.70
7658;DHT22;8462;53.156;8.220;2022-10-16T09:09:51;19.70;72.10
7658;DHT22;8462;53.156;8.220;2022-10-16T09:12:22;19.60;72.70
7658;DHT22;8462;53.156;8.220;2022-10-16T09:15:01;19.40;72.80
7658;DHT22;8462;53.156;8.220;2022-10-16T09:17:44;19.40;73.40
7658;DHT22;8462;53.156;8.220;2022-10-16T09:20:28;19.50;72.80
7658;DHT22;8462;53.156;8.220;2022-10-16T09:23:13;19.60;72.70
7658;DHT22;8462;53.156;8.220;2022-10-16T09:25:43;19.60;72.50
7658;DHT22;8462;53.156;8.220;2022-10-16T09:28:11;19.50;72.50
7658;DHT22;8462;53.156;8.220;2022-10-16T09:30:38;19.40;72.90
7658;DHT22;8462;53.156;8.220;2022-10-16T09:33:06;19.40;73.10
7658;DHT22;8462;53.156;8.220;2022-10-16T09:35:38;19.40;73.00
7658;DHT22;8462;53.156;8.220;2022-10-16T09:38:07;19.50;72.70
7658;DHT22;8462;53.156;8.220;2022-10-16T09:40:36;19.60;72.30
7658;DHT22;8462;53.156;8.220;2022-10-16T09:43:20;19.70;72.10
7658;DHT22;8462;53.156;8.220;2022-10-16T09:45:55;19.70;70.50
7658;DHT22;8462;53.156;8.220;2022-10-16T09:48:26;19.70;71.00
7658;DHT22;8462;53.156;8.220;2022-10-16T09:50:59;19.80;71.00
7658;DHT22;8462;53.156;8.220;2022-10-16T09:53:41;19.90;71.10
7658;DHT22;8462;53.156;8.220;2022-10-16T09:56:10;19.90;71.10
7658;DHT22;8462;53.156;8.220;2022-10-16T09:58:42;20.00;70.50
7658;DHT22;8462;53.156;8.220;2022-10-16T10:01:13;20.20;70.00
7658;DHT22;8462;53.156;8.220;2022-10-16T10:03:42;20.10;69.70
7658;DHT22;8462;53.156;8.220;2022-10-16T10:06:21;20.20;70.10
7658;DHT22;8462;53.156;8.220;2022-10-16T10:09:06;20.40;70.20
7658;DHT22;8462;53.156;8.220;2022-10-16T10:11:49;20.50;69.00
7658;DHT22;8462;53.156;8.220;2022-10-16T10:14:25;20.50;68.40
7658;DHT22;8462;53.156;8.220;2022-10-16T10:17:13;20.40;68.30
7658;DHT22;8462;53.156;8.220;2022-10-16T10:19:44;20.30;68.10
7658;DHT22;8462;53.156;8.220;2022-10-16T10:22:24;20.30;68.20
7658;DHT22;8462;53.156;8.220;2022-10-16T10:24:55;20.20;68.10
7658;DHT22;8462;53.156;8.220;2022-10-16T10:27:26;20.10;67.80
7658;DHT22;8462;53.156;8.220;2022-10-16T10:30:01;19.90;68.10
7658;DHT22;8462;53.156;8.220;2022-10-16T10:32:34;19.90;68.70
7658;DHT22;8462;53.156;8.220;2022-10-16T10:35:12;19.90;68.50
7658;DHT22;8462;53.156;8.220;2022-10-16T10:37:52;20.00;68.40
7658;DHT22;8462;53.156;8.220;2022-10-16T10:40:30;20.10;68.60
7658;DHT22;8462;53.156;8.220;2022-10-16T10:43:03;20.10;68.20
7658;DHT22;8462;53.156;8.220;2022-10-16T10:45:40;20.20;67.60
7658;DHT22;8462;53.156;8.220;2022-10-16T10:48:22;20.10;67.40
7658;DHT22;8462;53.156;8.220;2022-10-16T10:50:54;20.10;67.20
7658;DHT22;8462;53.156;8.220;2022-10-16T10:53:35;20.20;67.70
7658;DHT22;8462;53.156;8.220;2022-10-16T10:56:16;20.30;68.00
7658;DHT22;8462;53.156;8.220;2022-10-16T10:58:58;20.30;66.90
7658;DHT22;8462;53.156;8.220;2022-10-16T11:01:35;20.20;67.00
7658;DHT22;8462;53.156;8.220;2022-10-16T11:04:29;20.10;65.70
7658;DHT22;8462;53.156;8.220;2022-10-16T11:07:02;20.10;66.60
7658;DHT22;8462;53.156;8.220;2022-10-16T11:09:36;20.10;66.50
7658;DHT22;8462;53.156;8.220;2022-10-16T11:12:09;20.10;66.70
7658;DHT22;8462;53.156;8.220;2022-10-16T11:14:42;20.10;66.20
7658;DHT22;8462;53.156;8.220;2022-10-16T11:17:17;20.20;66.50
7658;DHT22;8462;53.156;8.220;2022-10-16T11:19:48;20.20;65.50
7658;DHT22;8462;53.156;8.220;2022-10-16T11:22:21;20.30;64.70
7658;DHT22;8462;53.156;8.220;2022-10-16T11:24:54;20.30;64.60
7658;DHT22;8462;53.156;8.220;2022-10-16T11:27:33;20.40;64.60
7658;DHT22;8462;53.156;8.220;2022-10-16T11:30:04;20.60;64.30
7658;DHT22;8462;53.156;8.220;2022-10-16T11:32:36;20.70;64.90
7658;DHT22;8462;53.156;8.220;2022-10-16T11:35:13;20.80;64.20
7658;DHT22;8462;53.156;8.220;2022-10-16T11:37:44;21.00;64.10
7658;DHT22;8462;53.156;8.220;2022-10-16T11:40:21;21.10;62.90
7658;DHT22;8462;53.156;8.220;2022-10-16T11:42:54;21.20;63.00
7658;DHT22;8462;53.156;8.220;2022-10-16T11:45:28;21.30;62.10
7658;DHT22;8462;53.156;8.220;2022-10-16T11:48:01;21.20;60.20
7658;DHT22;8462;53.156;8.220;2022-10-16T11:50:35;21.00;59.70
7658;DHT22;8462;53.156;8.220;2022-10-16T11:53:12;20.90;60.50
7658;DHT22;8462;53.156;8.220;2022-10-16T11:55:43;20.80;59.90
7658;DHT22;8462;53.156;8.220;2022-10-16T11:58:19;20.60;60.50
7658;DHT22;8462;53.156;8.220;2022-10-16T12:00:53;20.60;60.60
7658;DHT22;8462;53.156;8.220;2022-10-16T12:03:28;20.60;60.90
7658;DHT22;8462;53.156;8.220;2022-10-16T12:06:10;20.70;60.80
7658;DHT22;8462;53.156;8.220;2022-10-16T12:08:39;20.80;60.60
7658;DHT22;8462;53.156;8.220;2022-10-16T12:11:19;21.00;61.30
7658;DHT22;8462;53.156;8.220;2022-10-16T12:13:47;21.10;59.50
7658;DHT22;8462;53.156;8.220;2022-10-16T12:16:22;21.10;59.20
7658;DHT22;8462;53.156;8.220;2022-10-16T12:19:02;21.00;59.30
7658;DHT22;8462;53.156;8.220;2022-10-16T12:21:31;21.00;59.30
7658;DHT22;8462;53.156;8.220;2022-10-16T12:23:58;20.90;59.70
7658;DHT22;8462;53.156;8.220;2022-10-16T12:26:30;20.90;59.80
7658;DHT22;8462;53.156;8.220;2022-10-16T12:29:13;21.00;59.60
7658;DHT22;8462;53.156;8.220;2022-10-16T12:31:45;21.10;60.10
7658;DHT22;8462;53.156;8.220;2022-10-16T12:34:22;21.00;59.20
7658;DHT22;8462;53.156;8.220;2022-10-16T12:36:52;21.00;60.00
7658;DHT22;8462;53.156;8.220;2022-10-16T12:39:22;20.90;60.00
7658;DHT22;8462;53.156;8.220;2022-10-16T12:42:02;20.90;59.70
7658;DHT22;8462;53.156;8.220;2022-10-16T12:44:34;20.70;58.80
7658;DHT22;8462;53.156;8.220;2022-10-16T12:47:02;20.50;59.20
7658;DHT22;8462;53.156;8.220;2022-10-16T12:49:36;20.40;59.90
7658;DHT22;8462;53.156;8.220;2022-10-16T12:52:04;20.40;60.30
7658;DHT22;8462;53.156;8.220;2022-10-16T12:54:35;20.40;59.80
7658;DHT22;8462;53.156;8.220;2022-10-16T12:57:17;20.50;60.00
7658;DHT22;8462;53.156;8.220;2022-10-16T12:59:54;20.50;59.50
7658;DHT22;8462;53.156;8.220;2022-10-16T13:03:04;20.60;59.90
7658;DHT22;8462;53.156;8.220;2022-10-16T13:05:44;20.60;60.00
7658;DHT22;8462;53.156;8.220;2022-10-16T13:08:25;20.60;60.50
7658;DHT22;8462;53.156;8.220;2022-10-16T13:11:04;20.70;59.40
7658;DHT22;8462;53.156;8.220;2022-10-16T13:16:40;21.00;58.10
7658;DHT22;8462;53.156;8.220;2022-10-16T13:19:22;21.00;57.30
7658;DHT22;8462;53.156;8.220;2022-10-16T13:21:56;20.90;57.30
7658;DHT22;8462;53.156;8.220;2022-10-16T13:24:47;20.80;57.50
7658;DHT22;8462;53.156;8.220;2022-10-16T13:27:23;20.80;58.20
7658;DHT22;8462;53.156;8.220;2022-10-16T13:29:59;20.80;58.30
7658;DHT22;8462;53.156;8.220;2022-10-16T13:32:28;20.70;58.50
7658;DHT22;8462;53.156;8.220;2022-10-16T13:34:55;20.70;58.40
7658;DHT22;8462;53.156;8.220;2022-10-16T13:37:24;20.60;59.10
7658;DHT22;8462;53.156;8.220;2022-10-16T13:40:04;20.60;58.90
7658;DHT22;8462;53.156;8.220;2022-10-16T13:42:34;20.60;58.80
7658;DHT22;8462;53.156;8.220;2022-10-16T13:45:02;20.70;59.40
7658;DHT22;8462;53.156;8.220;2022-10-16T13:47:29;20.80;58.20
7658;DHT22;8462;53.156;8.220;2022-10-16T13:50:01;20.70;58.40
7658;DHT22;8462;53.156;8.220;2022-10-16T13:52:29;20.80;58.90
7658;DHT22;8462;53.156;8.220;2022-10-16T13:54:56;20.80;59.20
7658;DHT22;8462;53.156;8.220;2022-10-16T13:57:24;20.80;59.20
7658;DHT22;8462;53.156;8.220;2022-10-16T13:59:52;20.90;59.10
7658;DHT22;8462;53.156;8.220;2022-10-16T14:02:25;20.80;58.20
7658;DHT22;8462;53.156;8.220;2022-10-16T14:04:55;20.70;58.20
7658;DHT22;8462;53.156;8.220;2022-10-16T14:07:24;20.60;58.70
7658;DHT22;8462;53.156;8.220;2022-10-16T14:09:53;20.50;58.90
7658;DHT22;8462;53.156;8.220;2022-10-16T14:12:20;20.50;59.00
7658;DHT22;8462;53.156;8.220;2022-10-16T14:14:50;20.50;59.30
7658;DHT22;8462;53.156;8.220;2022-10-16T14:17:22;20.50;59.40
7658;DHT22;8462;53.156;8.220;2022-10-16T14:19:51;20.50;59.20
7658;DHT22;8462;53.156;8.220;2022-10-16T14:22:27;20.50;58.50
7658;DHT22;8462;53.156;8.220;2022-10-16T14:24:55;20.40;58.90
7658;DHT22;8462;53.156;8.220;2022-10-16T14:27:27;20.40;58.80
7658;DHT22;8462;53.156;8.220;2022-10-16T14:30:13;20.30;58.60
7658;DHT22;8462;53.156;8.220;2022-10-16T14:32:52;20.20;58.30
7658;DHT22;8462;53.156;8.220;2022-10-16T14:35:28;20.20;58.80
7658;DHT22;8462;53.156;8.220;2022-10-16T14:37:56;20.10;59.20
7658;DHT22;8462;53.156;8.220;2022-10-16T14:40:26;20.10;59.30
7658;DHT22;8462;53.156;8.220;2022-10-16T14:42:53;20.00;59.30
7658;DHT22;8462;53.156;8.220;2022-10-16T14:45:22;20.00;59.70
7658;DHT22;8462;53.156;8.220;2022-10-16T14:47:53;20.00;59.60
7658;DHT22;8462;53.156;8.220;2022-10-16T14:50:21;20.00;60.00
7658;DHT22;8462;53.156;8.220;2022-10-16T14:52:48;20.00;59.80
7658;DHT22;8462;53.156;8.220;2022-10-16T14:55:16;19.90;60.00
7658;DHT22;8462;53.156;8.220;2022-10-16T14:57:44;19.90;60.40
7658;DHT22;8462;53.156;8.220;2022-10-16T15:00:18;19.90;60.70
7658;DHT22;8462;53.156;8.220;2022-10-16T15:02:46;19.80;60.90
7658;DHT22;8462;53.156;8.220;2022-10-16T15:05:18;19.80;61.00
7658;DHT22;8462;53.156;8.220;2022-10-16T15:07:46;19.70;61.20
7658;DHT22;8462;53.156;8.220;2022-10-16T15:10:15;19.70;61.40
7658;DHT22;8462;53.156;8.220;2022-10-16T15:12:42;19.60;61.40
7658;DHT22;8462;53.156;8.220;2022-10-16T15:15:23;19.60;62.00
7658;DHT22;8462;53.156;8.220;2022-10-16T15:17:52;19.60;62.20
7658;DHT22;8462;53.156;8.220;2022-10-16T15:20:23;19.60;62.30
7658;DHT22;8462;53.156;8.220;2022-10-16T15:22:50;19.60;62.50
7658;DHT22;8462;53.156;8.220;2022-10-16T15:25:30;19.60;62.80
7658;DHT22;8462;53.156;8.220;2022-10-16T15:27:58;19.50;63.00
7658;DHT22;8462;53.156;8.220;2022-10-16T15:30:25;19.50;63.30
7658;DHT22;8462;53.156;8.220;2022-10-16T15:32:53;19.50;63.40
7658;DHT22;8462;53.156;8.220;2022-10-16T15:35:20;19.50;63.60
7658;DHT22;8462;53.156;8.220;2022-10-16T15:37:49;19.40;63.90
7658;DHT22;8462;53.156;8.220;2022-10-16T15:40:17;19.40;63.90
7658;DHT22;8462;53.156;8.220;2022-10-16T15:42:44;19.30;64.10
7658;DHT22;8462;53.156;8.220;2022-10-16T15:45:15;19.30;64.20
7658;DHT22;8462;53.156;8.220;2022-10-16T15:47:44;19.30;64.30
7658;DHT22;8462;53.156;8.220;2022-10-16T15:50:13;19.30;64.30
7658;DHT22;8462;53.156;8.220;2022-10-16T15:52:42;19.20;64.40
7658;DHT22;8462;53.156;8.220;2022-10-16T15:55:13;19.20;64.60
7658;DHT22;8462;53.156;8.220;2022-10-16T15:57:40;19.10;64.70
7658;DHT22;8462;53.156;8.220;2022-10-16T16:00:12;19.00;64.90
7658;DHT22;8462;53.156;8.220;2022-10-16T16:02:41;19.00;65.00
7658;DHT22;8462;53.156;8.220;2022-10-16T16:05:10;18.90;65.30
7658;DHT22;8462;53.156;8.220;2022-10-16T16:07:39;18.90;65.50
7658;DHT22;8462;53.156;8.220;2022-10-16T16:10:11;18.80;65.80
7658;DHT22;8462;53.156;8.220;2022-10-16T16:12:38;18.80;65.80
7658;DHT22;8462;53.156;8.220;2022-10-16T16:15:08;18.70;65.80
7658;DHT22;8462;53.156;8.220;2022-10-16T16:17:36;18.70;66.90
7658;DHT22;8462;53.156;8.220;2022-10-16T16:20:05;18.60;66.30
7658;DHT22;8462;53.156;8.220;2022-10-16T16:22:32;18.50;66.40
7658;DHT22;8462;53.156;8.220;2022-10-16T16:25:00;18.40;66.60
7658;DHT22;8462;53.156;8.220;2022-10-16T16:27:29;18.40;66.80